Houari Boumediene Airport

METAR DAAG TAF DAAG
10 °C
°C
-
°C
29m
Edad
23:28:47
LT
22:28
UTC
0 ft

2.000

4.000

6.000

8.000

10.000

FEW 2.000
FEW 2.300
BKN 8.000
VFR
<?= Yii::t('app', 'Wind direction') ?> <?= Yii::t('app', 'of'); ?>
200°
07:47
Amanecer
94%
Humedad
Cizalladura del viento
Cerrado/Nieve
Alcance visual RWY
Estado de la RWY
Visibilidad vert.
Visibilidad mínima
CAVOK
Tendencia
Corrección
Informe especial
1031 hPa
QNH
METAR DAAG 032200Z 20004KT 9999 FEW020 FEW023CB BKN080 10/09 Q1031
Muy nuboso
2 kt
2 kt
23:00
IFR
2 kt
00:00
IFR
2 kt
01:00
IFR
2 kt
02:00
IFR
2 kt
03:00
IFR
2 kt
04:00
IFR
2 kt
05:00
IFR
2 kt
10 km+
Visibilidad
8.000 ft
Cielo nuboso
4 kt
Viento
metar-taf.com/DAAG

Metar-Taf.com

Decodificador visual

Nosotros y terceros seguimos tu comportamiento en Internet en nuestro sitio web con cookies. Si continúas, asumimos que estás de acuerdo con nuestra Política de cookies.